sensor_id;sensor_type;location;lat;lon;timestamp;P1;durP1;ratioP1;P2;durP2;ratioP2
39276;SDS011;63149;48.086;-1.606;2023-08-06T05:02:01;10.98;;;2.30;;
39276;SDS011;63149;48.086;-1.606;2023-08-06T05:04:28;8.20;;;1.88;;
39276;SDS011;63149;48.086;-1.606;2023-08-06T05:06:55;12.77;;;2.35;;
39276;SDS011;63149;48.086;-1.606;2023-08-06T05:09:22;16.10;;;2.10;;
39276;SDS011;63149;48.086;-1.606;2023-08-06T05:11:49;12.77;;;2.15;;
39276;SDS011;63149;48.086;-1.606;2023-08-06T05:14:16;11.60;;;2.40;;
39276;SDS011;63149;48.086;-1.606;2023-08-06T05:16:43;10.48;;;2.10;;
39276;SDS011;63149;48.086;-1.606;2023-08-06T05:19:11;8.27;;;2.35;;
39276;SDS011;63149;48.086;-1.606;2023-08-06T05:21:38;18.17;;;2.50;;
39276;SDS011;63149;48.086;-1.606;2023-08-06T05:24:05;14.77;;;2.85;;
39276;SDS011;63149;48.086;-1.606;2023-08-06T05:26:32;11.68;;;2.40;;
39276;SDS011;63149;48.086;-1.606;2023-08-06T05:29:00;10.75;;;2.22;;
39276;SDS011;63149;48.086;-1.606;2023-08-06T05:31:27;14.02;;;2.50;;
39276;SDS011;63149;48.086;-1.606;2023-08-06T05:33:54;13.27;;;2.22;;
39276;SDS011;63149;48.086;-1.606;2023-08-06T05:36:22;11.00;;;2.33;;
39276;SDS011;63149;48.086;-1.606;2023-08-06T05:38:49;13.23;;;2.92;;
39276;SDS011;63149;48.086;-1.606;2023-08-06T05:41:16;6.60;;;2.00;;
39276;SDS011;63149;48.086;-1.606;2023-08-06T05:43:43;21.65;;;2.67;;
39276;SDS011;63149;48.086;-1.606;2023-08-06T05:46:10;12.40;;;2.17;;
39276;SDS011;63149;48.086;-1.606;2023-08-06T05:48:37;11.35;;;2.25;;
39276;SDS011;63149;48.086;-1.606;2023-08-06T05:51:04;12.35;;;2.90;;
39276;SDS011;63149;48.086;-1.606;2023-08-06T05:53:32;12.18;;;2.40;;
39276;SDS011;63149;48.086;-1.606;2023-08-06T05:55:59;16.27;;;2.63;;
39276;SDS011;63149;48.086;-1.606;2023-08-06T05:58:26;10.90;;;2.10;;
39276;SDS011;63149;48.086;-1.606;2023-08-06T06:00:54;21.15;;;2.70;;
39276;SDS011;63149;48.086;-1.606;2023-08-06T06:03:21;13.05;;;2.67;;
39276;SDS011;63149;48.086;-1.606;2023-08-06T06:05:48;12.40;;;2.70;;
39276;SDS011;63149;48.086;-1.606;2023-08-06T06:08:15;19.15;;;3.03;;
39276;SDS011;63149;48.086;-1.606;2023-08-06T06:10:43;15.57;;;2.60;;
39276;SDS011;63149;48.086;-1.606;2023-08-06T06:13:10;14.55;;;2.92;;
39276;SDS011;63149;48.086;-1.606;2023-08-06T06:15:37;16.92;;;2.65;;
39276;SDS011;63149;48.086;-1.606;2023-08-06T06:18:04;17.30;;;2.67;;
39276;SDS011;63149;48.086;-1.606;2023-08-06T06:20:31;16.27;;;2.83;;
39276;SDS011;63149;48.086;-1.606;2023-08-06T06:22:58;19.65;;;2.63;;
39276;SDS011;63149;48.086;-1.606;2023-08-06T06:25:25;15.95;;;2.30;;
39276;SDS011;63149;48.086;-1.606;2023-08-06T06:27:54;17.77;;;3.10;;
39276;SDS011;63149;48.086;-1.606;2023-08-06T06:30:21;10.35;;;2.30;;
39276;SDS011;63149;48.086;-1.606;2023-08-06T06:32:48;14.52;;;2.67;;
39276;SDS011;63149;48.086;-1.606;2023-08-06T06:35:14;17.65;;;3.58;;
39276;SDS011;63149;48.086;-1.606;2023-08-06T06:37:41;16.63;;;2.67;;
39276;SDS011;63149;48.086;-1.606;2023-08-06T06:40:08;18.63;;;2.67;;
39276;SDS011;63149;48.086;-1.606;2023-08-06T06:42:36;18.88;;;2.88;;
39276;SDS011;63149;48.086;-1.606;2023-08-06T06:45:05;17.95;;;2.60;;
39276;SDS011;63149;48.086;-1.606;2023-08-06T06:47:33;19.35;;;2.70;;
39276;SDS011;63149;48.086;-1.606;2023-08-06T06:49:59;12.50;;;2.58;;
39276;SDS011;63149;48.086;-1.606;2023-08-06T06:52:26;17.83;;;2.80;;
39276;SDS011;63149;48.086;-1.606;2023-08-06T06:54:53;18.98;;;2.95;;
39276;SDS011;63149;48.086;-1.606;2023-08-06T06:57:20;15.23;;;2.63;;
39276;SDS011;63149;48.086;-1.606;2023-08-06T06:59:47;12.77;;;2.40;;
39276;SDS011;63149;48.086;-1.606;2023-08-06T07:02:15;10.23;;;2.55;;
39276;SDS011;63149;48.086;-1.606;2023-08-06T07:04:42;14.88;;;2.58;;
39276;SDS011;63149;48.086;-1.606;2023-08-06T07:07:09;19.77;;;3.00;;
39276;SDS011;63149;48.086;-1.606;2023-08-06T07:09:36;16.70;;;3.53;;
39276;SDS011;63149;48.086;-1.606;2023-08-06T07:12:03;21.30;;;3.25;;
39276;SDS011;63149;48.086;-1.606;2023-08-06T07:14:31;18.88;;;3.08;;
39276;SDS011;63149;48.086;-1.606;2023-08-06T07:16:58;12.45;;;2.22;;
39276;SDS011;63149;48.086;-1.606;2023-08-06T07:19:26;15.20;;;3.05;;
39276;SDS011;63149;48.086;-1.606;2023-08-06T07:21:53;13.45;;;2.78;;
39276;SDS011;63149;48.086;-1.606;2023-08-06T07:24:20;20.38;;;3.42;;
39276;SDS011;63149;48.086;-1.606;2023-08-06T07:26:47;14.32;;;2.58;;
39276;SDS011;63149;48.086;-1.606;2023-08-06T07:29:14;22.58;;;3.00;;
39276;SDS011;63149;48.086;-1.606;2023-08-06T07:31:44;13.60;;;2.70;;
39276;SDS011;63149;48.086;-1.606;2023-08-06T07:34:11;15.07;;;2.67;;
39276;SDS011;63149;48.086;-1.606;2023-08-06T07:36:40;16.23;;;3.10;;
39276;SDS011;63149;48.086;-1.606;2023-08-06T07:39:09;13.30;;;2.65;;
39276;SDS011;63149;48.086;-1.606;2023-08-06T07:41:36;15.85;;;2.60;;
39276;SDS011;63149;48.086;-1.606;2023-08-06T07:44:03;20.15;;;3.13;;
39276;SDS011;63149;48.086;-1.606;2023-08-06T07:46:30;12.23;;;2.85;;
39276;SDS011;63149;48.086;-1.606;2023-08-06T07:48:57;18.00;;;2.22;;
39276;SDS011;63149;48.086;-1.606;2023-08-06T07:51:24;17.15;;;3.20;;
39276;SDS011;63149;48.086;-1.606;2023-08-06T07:53:53;12.60;;;3.05;;
39276;SDS011;63149;48.086;-1.606;2023-08-06T07:56:19;12.55;;;2.47;;
39276;SDS011;63149;48.086;-1.606;2023-08-06T07:58:46;16.80;;;2.88;;
39276;SDS011;63149;48.086;-1.606;2023-08-06T08:01:13;13.68;;;2.63;;
39276;SDS011;63149;48.086;-1.606;2023-08-06T08:03:40;14.93;;;2.70;;
39276;SDS011;63149;48.086;-1.606;2023-08-06T08:06:07;20.58;;;3.20;;
39276;SDS011;63149;48.086;-1.606;2023-08-06T08:08:34;15.80;;;2.40;;
39276;SDS011;63149;48.086;-1.606;2023-08-06T08:11:05;16.38;;;2.25;;
39276;SDS011;63149;48.086;-1.606;2023-08-06T08:13:32;11.40;;;2.55;;
39276;SDS011;63149;48.086;-1.606;2023-08-06T08:15:59;10.43;;;2.67;;
39276;SDS011;63149;48.086;-1.606;2023-08-06T08:18:27;9.88;;;2.08;;
39276;SDS011;63149;48.086;-1.606;2023-08-06T08:20:54;10.73;;;2.67;;
39276;SDS011;63149;48.086;-1.606;2023-08-06T08:23:22;15.05;;;2.03;;
39276;SDS011;63149;48.086;-1.606;2023-08-06T08:25:48;9.45;;;1.83;;
39276;SDS011;63149;48.086;-1.606;2023-08-06T08:28:17;12.95;;;1.77;;
39276;SDS011;63149;48.086;-1.606;2023-08-06T08:30:44;9.52;;;2.00;;
39276;SDS011;63149;48.086;-1.606;2023-08-06T08:33:11;6.80;;;1.75;;
39276;SDS011;63149;48.086;-1.606;2023-08-06T08:35:38;7.47;;;1.75;;
39276;SDS011;63149;48.086;-1.606;2023-08-06T08:38:05;9.40;;;1.85;;
39276;SDS011;63149;48.086;-1.606;2023-08-06T08:40:32;7.32;;;2.00;;
39276;SDS011;63149;48.086;-1.606;2023-08-06T08:43:01;9.80;;;1.55;;
39276;SDS011;63149;48.086;-1.606;2023-08-06T08:45:30;7.43;;;1.95;;
39276;SDS011;63149;48.086;-1.606;2023-08-06T08:48:01;13.50;;;2.35;;
39276;SDS011;63149;48.086;-1.606;2023-08-06T08:50:27;8.90;;;1.67;;
39276;SDS011;63149;48.086;-1.606;2023-08-06T08:52:55;11.63;;;2.00;;
39276;SDS011;63149;48.086;-1.606;2023-08-06T08:55:23;11.45;;;2.00;;
39276;SDS011;63149;48.086;-1.606;2023-08-06T08:57:50;9.15;;;1.52;;
39276;SDS011;63149;48.086;-1.606;2023-08-06T09:00:17;7.28;;;1.95;;
39276;SDS011;63149;48.086;-1.606;2023-08-06T09:02:46;6.55;;;1.92;;
39276;SDS011;63149;48.086;-1.606;2023-08-06T09:05:13;14.82;;;2.40;;
39276;SDS011;63149;48.086;-1.606;2023-08-06T09:07:41;10.27;;;1.80;;
39276;SDS011;63149;48.086;-1.606;2023-08-06T09:10:10;14.95;;;1.85;;
39276;SDS011;63149;48.086;-1.606;2023-08-06T09:12:38;12.02;;;2.60;;
39276;SDS011;63149;48.086;-1.606;2023-08-06T09:15:06;9.50;;;1.95;;
39276;SDS011;63149;48.086;-1.606;2023-08-06T09:17:33;12.88;;;1.63;;
39276;SDS011;63149;48.086;-1.606;2023-08-06T09:20:09;4.88;;;1.30;;
39276;SDS011;63149;48.086;-1.606;2023-08-06T09:22:37;11.40;;;2.00;;
39276;SDS011;63149;48.086;-1.606;2023-08-06T09:25:06;11.43;;;1.80;;
39276;SDS011;63149;48.086;-1.606;2023-08-06T09:27:35;11.38;;;1.63;;
39276;SDS011;63149;48.086;-1.606;2023-08-06T09:30:03;3.55;;;1.30;;
39276;SDS011;63149;48.086;-1.606;2023-08-06T09:32:44;7.75;;;1.50;;
39276;SDS011;63149;48.086;-1.606;2023-08-06T09:35:16;6.07;;;1.30;;
39276;SDS011;63149;48.086;-1.606;2023-08-06T09:37:43;10.82;;;1.60;;
39276;SDS011;63149;48.086;-1.606;2023-08-06T09:40:26;8.23;;;1.40;;
39276;SDS011;63149;48.086;-1.606;2023-08-06T09:42:54;9.25;;;1.80;;
39276;SDS011;63149;48.086;-1.606;2023-08-06T09:45:22;3.33;;;1.35;;
39276;SDS011;63149;48.086;-1.606;2023-08-06T09:47:49;2.83;;;1.35;;
39276;SDS011;63149;48.086;-1.606;2023-08-06T09:50:18;7.82;;;1.73;;
39276;SDS011;63149;48.086;-1.606;2023-08-06T09:52:46;5.22;;;1.40;;
39276;SDS011;63149;48.086;-1.606;2023-08-06T09:55:14;4.90;;;1.90;;
39276;SDS011;63149;48.086;-1.606;2023-08-06T09:57:41;8.10;;;1.73;;
39276;SDS011;63149;48.086;-1.606;2023-08-06T10:00:09;8.80;;;1.45;;
39276;SDS011;63149;48.086;-1.606;2023-08-06T10:02:38;2.60;;;1.10;;
39276;SDS011;63149;48.086;-1.606;2023-08-06T10:05:05;8.63;;;1.52;;
39276;SDS011;63149;48.086;-1.606;2023-08-06T10:07:35;5.47;;;1.05;;
39276;SDS011;63149;48.086;-1.606;2023-08-06T10:10:04;8.60;;;1.33;;
39276;SDS011;63149;48.086;-1.606;2023-08-06T10:12:32;5.85;;;1.42;;
39276;SDS011;63149;48.086;-1.606;2023-08-06T10:15:03;5.78;;;1.40;;
39276;SDS011;63149;48.086;-1.606;2023-08-06T10:17:34;6.00;;;1.45;;
39276;SDS011;63149;48.086;-1.606;2023-08-06T10:20:03;4.18;;;1.02;;
39276;SDS011;63149;48.086;-1.606;2023-08-06T10:22:32;4.30;;;1.15;;
39276;SDS011;63149;48.086;-1.606;2023-08-06T10:25:01;3.25;;;1.10;;
39276;SDS011;63149;48.086;-1.606;2023-08-06T10:27:31;5.22;;;1.50;;
39276;SDS011;63149;48.086;-1.606;2023-08-06T10:32:49;3.63;;;1.23;;
39276;SDS011;63149;48.086;-1.606;2023-08-06T10:38:07;4.80;;;1.58;;
39276;SDS011;63149;48.086;-1.606;2023-08-06T10:40:35;3.13;;;1.10;;
39276;SDS011;63149;48.086;-1.606;2023-08-06T10:43:03;8.38;;;1.92;;
39276;SDS011;63149;48.086;-1.606;2023-08-06T10:45:34;2.70;;;1.35;;
39276;SDS011;63149;48.086;-1.606;2023-08-06T10:48:01;7.93;;;1.50;;
39276;SDS011;63149;48.086;-1.606;2023-08-06T10:50:29;8.93;;;1.48;;
39276;SDS011;63149;48.086;-1.606;2023-08-06T10:52:56;4.80;;;1.52;;
39276;SDS011;63149;48.086;-1.606;2023-08-06T10:55:26;4.03;;;0.95;;
39276;SDS011;63149;48.086;-1.606;2023-08-06T10:57:54;3.25;;;1.20;;
39276;SDS011;63149;48.086;-1.606;2023-08-06T11:00:22;4.20;;;1.80;;
39276;SDS011;63149;48.086;-1.606;2023-08-06T11:02:49;5.03;;;1.58;;
39276;SDS011;63149;48.086;-1.606;2023-08-06T11:05:17;6.80;;;1.83;;
39276;SDS011;63149;48.086;-1.606;2023-08-06T11:07:44;3.20;;;1.10;;
39276;SDS011;63149;48.086;-1.606;2023-08-06T11:10:13;5.13;;;1.30;;
39276;SDS011;63149;48.086;-1.606;2023-08-06T11:12:42;6.53;;;1.35;;
39276;SDS011;63149;48.086;-1.606;2023-08-06T11:15:09;1.80;;;1.42;;
39276;SDS011;63149;48.086;-1.606;2023-08-06T11:17:37;3.30;;;0.88;;
39276;SDS011;63149;48.086;-1.606;2023-08-06T11:20:06;3.25;;;1.13;;
39276;SDS011;63149;48.086;-1.606;2023-08-06T11:22:34;5.93;;;1.10;;
39276;SDS011;63149;48.086;-1.606;2023-08-06T11:25:03;3.30;;;1.27;;
39276;SDS011;63149;48.086;-1.606;2023-08-06T11:27:31;6.25;;;1.17;;
39276;SDS011;63149;48.086;-1.606;2023-08-06T11:29:59;3.17;;;1.00;;
39276;SDS011;63149;48.086;-1.606;2023-08-06T11:32:26;5.07;;;0.95;;
39276;SDS011;63149;48.086;-1.606;2023-08-06T11:34:53;4.30;;;1.10;;
39276;SDS011;63149;48.086;-1.606;2023-08-06T11:37:21;3.05;;;1.00;;
39276;SDS011;63149;48.086;-1.606;2023-08-06T11:39:50;5.88;;;1.70;;
39276;SDS011;63149;48.086;-1.606;2023-08-06T11:42:17;4.85;;;0.90;;
39276;SDS011;63149;48.086;-1.606;2023-08-06T11:44:44;2.08;;;1.30;;
39276;SDS011;63149;48.086;-1.606;2023-08-06T11:47:16;2.83;;;1.02;;
39276;SDS011;63149;48.086;-1.606;2023-08-06T11:49:44;3.92;;;1.00;;
39276;SDS011;63149;48.086;-1.606;2023-08-06T11:52:13;5.22;;;1.50;;
39276;SDS011;63149;48.086;-1.606;2023-08-06T11:54:44;3.97;;;1.58;;
39276;SDS011;63149;48.086;-1.606;2023-08-06T11:57:11;5.13;;;1.70;;
39276;SDS011;63149;48.086;-1.606;2023-08-06T11:59:38;7.05;;;1.80;;
39276;SDS011;63149;48.086;-1.606;2023-08-06T12:02:07;4.25;;;2.00;;
39276;SDS011;63149;48.086;-1.606;2023-08-06T12:07:31;3.90;;;1.27;;
39276;SDS011;63149;48.086;-1.606;2023-08-06T12:09:59;4.72;;;1.30;;
39276;SDS011;63149;48.086;-1.606;2023-08-06T12:12:26;4.93;;;1.10;;
39276;SDS011;63149;48.086;-1.606;2023-08-06T12:14:53;5.32;;;0.90;;
39276;SDS011;63149;48.086;-1.606;2023-08-06T12:17:21;2.90;;;0.88;;
39276;SDS011;63149;48.086;-1.606;2023-08-06T12:19:48;2.22;;;0.98;;
39276;SDS011;63149;48.086;-1.606;2023-08-06T12:22:16;3.17;;;0.93;;
39276;SDS011;63149;48.086;-1.606;2023-08-06T12:24:44;4.53;;;1.75;;
39276;SDS011;63149;48.086;-1.606;2023-08-06T12:27:12;1.80;;;1.10;;
39276;SDS011;63149;48.086;-1.606;2023-08-06T12:29:40;2.40;;;0.82;;
39276;SDS011;63149;48.086;-1.606;2023-08-06T12:32:07;3.47;;;1.20;;
39276;SDS011;63149;48.086;-1.606;2023-08-06T12:34:34;2.40;;;1.10;;
39276;SDS011;63149;48.086;-1.606;2023-08-06T12:37:01;2.50;;;1.10;;
39276;SDS011;63149;48.086;-1.606;2023-08-06T12:39:30;2.10;;;0.90;;
39276;SDS011;63149;48.086;-1.606;2023-08-06T12:41:57;5.57;;;1.42;;
39276;SDS011;63149;48.086;-1.606;2023-08-06T12:44:25;6.22;;;1.17;;
39276;SDS011;63149;48.086;-1.606;2023-08-06T12:46:52;4.63;;;1.35;;
39276;SDS011;63149;48.086;-1.606;2023-08-06T12:49:19;2.35;;;1.17;;
39276;SDS011;63149;48.086;-1.606;2023-08-06T12:51:47;1.83;;;0.88;;
39276;SDS011;63149;48.086;-1.606;2023-08-06T12:54:14;6.82;;;1.00;;
39276;SDS011;63149;48.086;-1.606;2023-08-06T12:56:43;2.53;;;0.70;;
39276;SDS011;63149;48.086;-1.606;2023-08-06T12:59:10;2.15;;;0.98;;
39276;SDS011;63149;48.086;-1.606;2023-08-06T13:01:37;0.95;;;0.80;;
39276;SDS011;63149;48.086;-1.606;2023-08-06T13:04:04;3.28;;;1.00;;
39276;SDS011;63149;48.086;-1.606;2023-08-06T13:06:31;2.33;;;0.60;;
39276;SDS011;63149;48.086;-1.606;2023-08-06T13:09:01;3.55;;;1.48;;
39276;SDS011;63149;48.086;-1.606;2023-08-06T13:11:28;3.22;;;1.10;;
39276;SDS011;63149;48.086;-1.606;2023-08-06T13:13:59;1.60;;;0.73;;
39276;SDS011;63149;48.086;-1.606;2023-08-06T13:16:30;4.18;;;1.00;;
39276;SDS011;63149;48.086;-1.606;2023-08-06T13:18:57;1.63;;;0.80;;
39276;SDS011;63149;48.086;-1.606;2023-08-06T13:21:31;2.70;;;1.00;;
39276;SDS011;63149;48.086;-1.606;2023-08-06T13:23:59;0.68;;;0.63;;
39276;SDS011;63149;48.086;-1.606;2023-08-06T13:26:26;4.55;;;1.20;;
39276;SDS011;63149;48.086;-1.606;2023-08-06T13:28:53;1.83;;;0.90;;
39276;SDS011;63149;48.086;-1.606;2023-08-06T13:31:22;2.47;;;1.10;;
39276;SDS011;63149;48.086;-1.606;2023-08-06T13:33:49;3.08;;;1.25;;
39276;SDS011;63149;48.086;-1.606;2023-08-06T13:36:16;2.33;;;0.88;;
39276;SDS011;63149;48.086;-1.606;2023-08-06T13:38:43;3.63;;;1.20;;
39276;SDS011;63149;48.086;-1.606;2023-08-06T13:41:10;1.27;;;0.73;;
39276;SDS011;63149;48.086;-1.606;2023-08-06T13:43:37;2.90;;;1.00;;
39276;SDS011;63149;48.086;-1.606;2023-08-06T13:46:04;5.18;;;1.10;;
39276;SDS011;63149;48.086;-1.606;2023-08-06T13:48:33;3.67;;;1.10;;
39276;SDS011;63149;48.086;-1.606;2023-08-06T13:51:00;5.10;;;1.10;;
39276;SDS011;63149;48.086;-1.606;2023-08-06T13:53:26;4.85;;;1.23;;
39276;SDS011;63149;48.086;-1.606;2023-08-06T13:55:55;5.50;;;1.10;;
39276;SDS011;63149;48.086;-1.606;2023-08-06T13:58:22;4.65;;;1.10;;
39276;SDS011;63149;48.086;-1.606;2023-08-06T14:00:50;2.60;;;0.90;;
39276;SDS011;63149;48.086;-1.606;2023-08-06T14:03:19;2.80;;;1.10;;
39276;SDS011;63149;48.086;-1.606;2023-08-06T14:05:47;1.35;;;0.90;;
39276;SDS011;63149;48.086;-1.606;2023-08-06T14:08:14;4.57;;;1.20;;
39276;SDS011;63149;48.086;-1.606;2023-08-06T14:10:43;5.10;;;1.50;;
39276;SDS011;63149;48.086;-1.606;2023-08-06T14:13:10;4.25;;;1.10;;
39276;SDS011;63149;48.086;-1.606;2023-08-06T14:15:37;2.40;;;1.02;;
39276;SDS011;63149;48.086;-1.606;2023-08-06T14:18:05;2.10;;;1.02;;
39276;SDS011;63149;48.086;-1.606;2023-08-06T14:20:33;3.45;;;1.02;;
39276;SDS011;63149;48.086;-1.606;2023-08-06T14:23:01;3.25;;;1.00;;
39276;SDS011;63149;48.086;-1.606;2023-08-06T14:25:28;3.97;;;1.15;;
39276;SDS011;63149;48.086;-1.606;2023-08-06T14:27:55;5.10;;;1.33;;
39276;SDS011;63149;48.086;-1.606;2023-08-06T14:30:22;7.22;;;1.05;;
39276;SDS011;63149;48.086;-1.606;2023-08-06T14:32:49;6.45;;;0.95;;
39276;SDS011;63149;48.086;-1.606;2023-08-06T14:35:16;12.73;;;1.40;;
39276;SDS011;63149;48.086;-1.606;2023-08-06T14:37:43;4.63;;;1.25;;
39276;SDS011;63149;48.086;-1.606;2023-08-06T14:40:12;3.75;;;1.20;;
39276;SDS011;63149;48.086;-1.606;2023-08-06T14:42:39;4.68;;;1.13;;
39276;SDS011;63149;48.086;-1.606;2023-08-06T14:45:06;4.47;;;1.67;;
39276;SDS011;63149;48.086;-1.606;2023-08-06T14:47:33;4.18;;;1.35;;
39276;SDS011;63149;48.086;-1.606;2023-08-06T14:50:00;2.65;;;1.08;;
39276;SDS011;63149;48.086;-1.606;2023-08-06T14:52:27;4.03;;;0.90;;
39276;SDS011;63149;48.086;-1.606;2023-08-06T14:54:54;4.43;;;1.25;;
39276;SDS011;63149;48.086;-1.606;2023-08-06T14:57:23;4.03;;;1.15;;
39276;SDS011;63149;48.086;-1.606;2023-08-06T14:59:52;3.20;;;1.30;;
39276;SDS011;63149;48.086;-1.606;2023-08-06T15:02:19;5.30;;;1.10;;
39276;SDS011;63149;48.086;-1.606;2023-08-06T15:04:46;2.15;;;1.10;;
39276;SDS011;63149;48.086;-1.606;2023-08-06T15:07:13;4.22;;;1.05;;
39276;SDS011;63149;48.086;-1.606;2023-08-06T15:09:40;2.42;;;0.93;;
39276;SDS011;63149;48.086;-1.606;2023-08-06T15:12:07;2.30;;;1.02;;
39276;SDS011;63149;48.086;-1.606;2023-08-06T15:14:35;2.97;;;0.98;;
39276;SDS011;63149;48.086;-1.606;2023-08-06T15:17:03;2.10;;;0.93;;
39276;SDS011;63149;48.086;-1.606;2023-08-06T15:19:30;20.02;;;2.17;;
39276;SDS011;63149;48.086;-1.606;2023-08-06T15:21:56;4.95;;;1.17;;
39276;SDS011;63149;48.086;-1.606;2023-08-06T15:24:23;5.90;;;1.10;;
39276;SDS011;63149;48.086;-1.606;2023-08-06T15:26:50;5.60;;;1.27;;
39276;SDS011;63149;48.086;-1.606;2023-08-06T15:29:17;10.32;;;1.35;;
39276;SDS011;63149;48.086;-1.606;2023-08-06T15:31:45;3.28;;;1.30;;
39276;SDS011;63149;48.086;-1.606;2023-08-06T15:34:12;3.70;;;1.30;;
39276;SDS011;63149;48.086;-1.606;2023-08-06T15:36:39;4.85;;;1.08;;
39276;SDS011;63149;48.086;-1.606;2023-08-06T15:39:06;3.97;;;1.15;;
39276;SDS011;63149;48.086;-1.606;2023-08-06T15:41:33;7.18;;;1.67;;
39276;SDS011;63149;48.086;-1.606;2023-08-06T15:44:00;3.97;;;1.30;;
39276;SDS011;63149;48.086;-1.606;2023-08-06T15:46:27;5.88;;;1.20;;
39276;SDS011;63149;48.086;-1.606;2023-08-06T15:48:55;2.58;;;1.00;;
39276;SDS011;63149;48.086;-1.606;2023-08-06T15:51:22;3.05;;;1.13;;
39276;SDS011;63149;48.086;-1.606;2023-08-06T15:53:49;4.72;;;1.38;;
39276;SDS011;63149;48.086;-1.606;2023-08-06T15:56:16;4.72;;;1.20;;
39276;SDS011;63149;48.086;-1.606;2023-08-06T15:58:43;2.80;;;1.10;;
39276;SDS011;63149;48.086;-1.606;2023-08-06T16:01:09;4.30;;;1.20;;
39276;SDS011;63149;48.086;-1.606;2023-08-06T16:03:37;3.47;;;1.20;;
39276;SDS011;63149;48.086;-1.606;2023-08-06T16:06:08;5.10;;;0.95;;
39276;SDS011;63149;48.086;-1.606;2023-08-06T16:08:35;2.78;;;0.90;;
39276;SDS011;63149;48.086;-1.606;2023-08-06T16:11:03;2.95;;;1.50;;
39276;SDS011;63149;48.086;-1.606;2023-08-06T16:13:32;5.85;;;1.35;;
39276;SDS011;63149;48.086;-1.606;2023-08-06T16:15:59;3.28;;;1.33;;
39276;SDS011;63149;48.086;-1.606;2023-08-06T16:18:26;2.85;;;1.30;;
39276;SDS011;63149;48.086;-1.606;2023-08-06T16:20:53;4.72;;;1.30;;
39276;SDS011;63149;48.086;-1.606;2023-08-06T16:23:21;4.43;;;1.33;;
39276;SDS011;63149;48.086;-1.606;2023-08-06T16:25:48;3.72;;;1.27;;
39276;SDS011;63149;48.086;-1.606;2023-08-06T16:28:15;5.40;;;1.27;;
39276;SDS011;63149;48.086;-1.606;2023-08-06T16:30:43;3.22;;;1.30;;
39276;SDS011;63149;48.086;-1.606;2023-08-06T16:33:11;3.90;;;1.15;;
39276;SDS011;63149;48.086;-1.606;2023-08-06T16:35:38;3.95;;;1.33;;
39276;SDS011;63149;48.086;-1.606;2023-08-06T16:38:05;2.13;;;1.17;;
39276;SDS011;63149;48.086;-1.606;2023-08-06T16:40:33;2.80;;;1.20;;
39276;SDS011;63149;48.086;-1.606;2023-08-06T16:43:00;4.88;;;1.30;;
39276;SDS011;63149;48.086;-1.606;2023-08-06T16:45:29;4.88;;;1.48;;
39276;SDS011;63149;48.086;-1.606;2023-08-06T16:47:56;10.65;;;1.90;;
39276;SDS011;63149;48.086;-1.606;2023-08-06T16:50:23;3.22;;;1.27;;
39276;SDS011;63149;48.086;-1.606;2023-08-06T16:52:50;5.72;;;1.42;;
39276;SDS011;63149;48.086;-1.606;2023-08-06T16:55:17;3.30;;;1.30;;
39276;SDS011;63149;48.086;-1.606;2023-08-06T16:57:45;3.90;;;1.60;;
39276;SDS011;63149;48.086;-1.606;2023-08-06T17:00:13;4.65;;;1.20;;
39276;SDS011;63149;48.086;-1.606;2023-08-06T17:02:40;3.20;;;1.35;;
39276;SDS011;63149;48.086;-1.606;2023-08-06T17:05:07;5.47;;;1.48;;
39276;SDS011;63149;48.086;-1.606;2023-08-06T17:07:34;4.25;;;1.48;;
39276;SDS011;63149;48.086;-1.606;2023-08-06T17:10:01;4.25;;;1.40;;
39276;SDS011;63149;48.086;-1.606;2023-08-06T17:12:28;4.70;;;1.27;;
39276;SDS011;63149;48.086;-1.606;2023-08-06T17:14:57;3.33;;;1.38;;
39276;SDS011;63149;48.086;-1.606;2023-08-06T17:17:24;3.42;;;1.02;;
39276;SDS011;63149;48.086;-1.606;2023-08-06T17:19:51;3.35;;;1.45;;
39276;SDS011;63149;48.086;-1.606;2023-08-06T17:22:18;5.38;;;1.30;;
39276;SDS011;63149;48.086;-1.606;2023-08-06T17:24:45;2.40;;;1.50;;
39276;SDS011;63149;48.086;-1.606;2023-08-06T17:27:12;4.07;;;1.17;;
39276;SDS011;63149;48.086;-1.606;2023-08-06T17:29:39;5.50;;;1.73;;
39276;SDS011;63149;48.086;-1.606;2023-08-06T17:32:07;5.68;;;1.65;;
39276;SDS011;63149;48.086;-1.606;2023-08-06T17:34:36;3.60;;;1.45;;
39276;SDS011;63149;48.086;-1.606;2023-08-06T17:37:03;7.30;;;1.25;;
39276;SDS011;63149;48.086;-1.606;2023-08-06T17:39:31;4.05;;;1.60;;
39276;SDS011;63149;48.086;-1.606;2023-08-06T17:41:58;2.30;;;1.35;;
39276;SDS011;63149;48.086;-1.606;2023-08-06T17:44:28;4.25;;;1.30;;
39276;SDS011;63149;48.086;-1.606;2023-08-06T17:46:55;3.55;;;1.20;;
39276;SDS011;63149;48.086;-1.606;2023-08-06T17:49:23;3.55;;;1.50;;
39276;SDS011;63149;48.086;-1.606;2023-08-06T17:51:50;4.85;;;1.20;;
39276;SDS011;63149;48.086;-1.606;2023-08-06T17:54:17;3.10;;;1.25;;
39276;SDS011;63149;48.086;-1.606;2023-08-06T17:56:44;5.25;;;1.70;;
39276;SDS011;63149;48.086;-1.606;2023-08-06T17:59:11;3.50;;;1.23;;
39276;SDS011;63149;48.086;-1.606;2023-08-06T18:01:38;5.45;;;1.52;;
39276;SDS011;63149;48.086;-1.606;2023-08-06T18:04:05;3.72;;;1.67;;
39276;SDS011;63149;48.086;-1.606;2023-08-06T18:06:34;5.60;;;1.30;;
39276;SDS011;63149;48.086;-1.606;2023-08-06T18:09:01;3.42;;;1.30;;
39276;SDS011;63149;48.086;-1.606;2023-08-06T18:11:28;2.95;;;1.90;;
39276;SDS011;63149;48.086;-1.606;2023-08-06T18:13:55;2.67;;;1.80;;
39276;SDS011;63149;48.086;-1.606;2023-08-06T18:16:22;3.80;;;1.42;;
39276;SDS011;63149;48.086;-1.606;2023-08-06T18:18:49;3.63;;;1.40;;
39276;SDS011;63149;48.086;-1.606;2023-08-06T18:21:18;3.75;;;1.60;;
39276;SDS011;63149;48.086;-1.606;2023-08-06T18:23:47;4.65;;;1.40;;
39276;SDS011;63149;48.086;-1.606;2023-08-06T18:26:14;4.90;;;1.52;;
39276;SDS011;63149;48.086;-1.606;2023-08-06T18:28:41;4.60;;;1.52;;
39276;SDS011;63149;48.086;-1.606;2023-08-06T18:31:09;2.80;;;1.30;;
39276;SDS011;63149;48.086;-1.606;2023-08-06T18:33:37;6.30;;;1.40;;
39276;SDS011;63149;48.086;-1.606;2023-08-06T18:36:05;2.15;;;1.33;;
39276;SDS011;63149;48.086;-1.606;2023-08-06T18:38:32;4.80;;;1.42;;
39276;SDS011;63149;48.086;-1.606;2023-08-06T18:41:00;6.13;;;1.92;;
39276;SDS011;63149;48.086;-1.606;2023-08-06T18:43:27;4.18;;;1.48;;
39276;SDS011;63149;48.086;-1.606;2023-08-06T18:45:54;4.00;;;1.60;;
39276;SDS011;63149;48.086;-1.606;2023-08-06T18:48:22;2.75;;;1.30;;
39276;SDS011;63149;48.086;-1.606;2023-08-06T18:50:49;4.28;;;1.25;;
39276;SDS011;63149;48.086;-1.606;2023-08-06T18:53:18;5.20;;;1.73;;
39276;SDS011;63149;48.086;-1.606;2023-08-06T18:55:45;2.58;;;1.30;;
39276;SDS011;63149;48.086;-1.606;2023-08-06T18:58:15;4.10;;;1.38;;
39276;SDS011;63149;48.086;-1.606;2023-08-06T19:00:42;1.65;;;1.23;;
39276;SDS011;63149;48.086;-1.606;2023-08-06T19:03:09;4.80;;;1.80;;
39276;SDS011;63149;48.086;-1.606;2023-08-06T19:05:37;3.78;;;1.35;;
39276;SDS011;63149;48.086;-1.606;2023-08-06T19:08:05;4.55;;;1.20;;
39276;SDS011;63149;48.086;-1.606;2023-08-06T19:10:32;3.92;;;1.70;;
39276;SDS011;63149;48.086;-1.606;2023-08-06T19:13:05;4.18;;;1.60;;
39276;SDS011;63149;48.086;-1.606;2023-08-06T19:15:34;5.03;;;1.65;;
39276;SDS011;63149;48.086;-1.606;2023-08-06T19:18:01;3.30;;;1.50;;
39276;SDS011;63149;48.086;-1.606;2023-08-06T19:20:29;7.28;;;1.63;;
39276;SDS011;63149;48.086;-1.606;2023-08-06T19:22:56;2.33;;;1.40;;
39276;SDS011;63149;48.086;-1.606;2023-08-06T19:25:22;4.05;;;1.63;;
39276;SDS011;63149;48.086;-1.606;2023-08-06T19:27:49;5.55;;;1.40;;
39276;SDS011;63149;48.086;-1.606;2023-08-06T19:30:16;5.93;;;1.30;;
39276;SDS011;63149;48.086;-1.606;2023-08-06T19:32:45;3.70;;;1.30;;
39276;SDS011;63149;48.086;-1.606;2023-08-06T19:35:12;2.70;;;1.27;;
39276;SDS011;63149;48.086;-1.606;2023-08-06T19:37:39;3.55;;;1.40;;
39276;SDS011;63149;48.086;-1.606;2023-08-06T19:40:06;3.92;;;1.30;;
39276;SDS011;63149;48.086;-1.606;2023-08-06T19:42:35;4.32;;;1.38;;